createdAt,value
2023-11-12T00:00:37.862Z,13.20
2023-11-12T00:03:05.227Z,10.57
2023-11-12T00:05:32.125Z,17.63
2023-11-12T00:07:58.895Z,10.98
2023-11-12T00:10:26.972Z,15.20
2023-11-12T00:12:54.069Z,10.93
2023-11-12T00:15:21.016Z,9.43
2023-11-12T00:17:47.934Z,10.70
2023-11-12T00:20:14.864Z,12.50
2023-11-12T00:22:42.325Z,11.90
2023-11-12T00:25:11.301Z,9.15
2023-11-12T00:27:38.260Z,8.85
2023-11-12T00:30:05.471Z,11.55
2023-11-12T00:32:33.813Z,7.93
2023-11-12T00:35:00.784Z,10.52
2023-11-12T00:37:27.579Z,9.98
2023-11-12T00:39:54.365Z,11.40
2023-11-12T00:42:21.661Z,10.80
2023-11-12T00:44:48.531Z,8.95
2023-11-12T00:47:15.445Z,11.05
2023-11-12T00:49:42.234Z,9.73
2023-11-12T00:52:09.808Z,11.98
2023-11-12T00:54:37.541Z,9.80
2023-11-12T00:57:04.496Z,10.95
2023-11-12T00:59:31.788Z,8.77
2023-11-12T01:01:58.621Z,11.00
2023-11-12T01:04:28.588Z,16.13
2023-11-12T01:06:55.341Z,11.75
2023-11-12T01:09:22.180Z,13.48
2023-11-12T01:11:49.308Z,11.75
2023-11-12T01:14:16.279Z,13.90
2023-11-12T01:16:43.109Z,8.85
2023-11-12T01:19:09.940Z,7.43
2023-11-12T01:21:36.764Z,9.40
2023-11-12T01:24:03.786Z,9.50
2023-11-12T01:26:30.837Z,13.63
2023-11-12T01:28:57.585Z,12.38
2023-11-12T01:31:24.615Z,11.82
2023-11-12T01:33:53.142Z,8.13
2023-11-12T01:36:21.090Z,11.00
2023-11-12T01:38:47.869Z,11.88
2023-11-12T01:41:14.789Z,9.60
2023-11-12T01:43:42.853Z,7.43
2023-11-12T01:46:09.984Z,11.98
2023-11-12T01:48:37.130Z,9.10
2023-11-12T01:51:05.591Z,8.70
2023-11-12T01:53:35.561Z,16.88
2023-11-12T01:56:04.592Z,12.57
2023-11-12T01:58:32.216Z,10.82
2023-11-12T02:00:59.969Z,12.60
2023-11-12T02:03:28.110Z,13.27
2023-11-12T02:05:54.970Z,10.77
2023-11-12T02:08:23.130Z,8.18
2023-11-12T02:10:54.295Z,12.25
2023-11-12T02:13:22.924Z,8.90
2023-11-12T02:15:51.509Z,8.40
2023-11-12T02:18:18.420Z,5.57
2023-11-12T02:20:46.808Z,9.20
2023-11-12T02:23:16.308Z,7.72
2023-11-12T02:25:44.770Z,12.63
2023-11-12T02:28:16.991Z,9.13
2023-11-12T02:30:43.987Z,11.85
2023-11-12T02:33:11.112Z,8.25
2023-11-12T02:35:43.772Z,13.95
2023-11-12T02:38:14.259Z,13.88
2023-11-12T02:40:41.151Z,10.65
2023-11-12T02:43:08.012Z,12.70
2023-11-12T02:45:34.916Z,13.25
2023-11-12T02:48:02.805Z,12.25
2023-11-12T02:50:33.698Z,12.27
2023-11-12T02:53:02.045Z,14.73
2023-11-12T02:55:30.176Z,13.20
2023-11-12T02:57:57.168Z,15.55
2023-11-12T03:00:28.645Z,14.80
2023-11-12T03:03:01.720Z,15.25
2023-11-12T03:05:30.333Z,16.52
2023-11-12T03:07:59.332Z,17.38
2023-11-12T03:10:26.357Z,18.33
2023-11-12T03:12:53.683Z,15.93
2023-11-12T03:15:20.519Z,15.07
2023-11-12T03:17:47.378Z,17.15
2023-11-12T03:20:15.521Z,12.40
2023-11-12T03:22:42.351Z,14.25
2023-11-12T03:25:11.220Z,18.00
2023-11-12T03:27:38.389Z,15.07
2023-11-12T03:30:06.139Z,18.52
2023-11-12T03:32:32.988Z,19.40
2023-11-12T03:35:01.928Z,19.67
2023-11-12T03:37:29.014Z,17.13
2023-11-12T03:39:56.384Z,20.27
2023-11-12T03:42:23.215Z,16.65
2023-11-12T03:44:53.074Z,16.88
2023-11-12T03:47:20.691Z,17.92
2023-11-12T03:49:47.550Z,16.50
2023-11-12T03:52:14.380Z,17.02
2023-11-12T03:54:41.455Z,19.52
2023-11-12T03:57:08.724Z,16.58
2023-11-12T03:59:37.203Z,15.20
2023-11-12T04:02:05.599Z,14.32
2023-11-12T04:04:33.134Z,15.82
2023-11-12T04:07:00.110Z,19.27
2023-11-12T04:09:26.886Z,18.38
2023-11-12T04:11:53.907Z,17.25
2023-11-12T04:14:21.564Z,17.40
2023-11-12T04:16:48.442Z,16.00
2023-11-12T04:19:15.280Z,16.10
2023-11-12T04:21:42.059Z,18.33
2023-11-12T04:24:09.280Z,16.15
2023-11-12T04:26:36.189Z,14.18
2023-11-12T04:29:07.932Z,17.40
2023-11-12T04:34:02.682Z,16.27
2023-11-12T04:36:29.990Z,19.60
2023-11-12T04:39:00.030Z,19.65
2023-11-12T04:41:28.364Z,16.48
2023-11-12T04:43:55.648Z,18.08
2023-11-12T04:46:22.907Z,16.65
2023-11-12T04:48:50.276Z,21.73
2023-11-12T04:51:21.147Z,17.63
2023-11-12T04:53:49.318Z,17.57
2023-11-12T04:56:16.217Z,17.70
2023-11-12T04:58:43.053Z,18.42
2023-11-12T05:01:09.833Z,16.73
2023-11-12T05:03:36.777Z,17.95
2023-11-12T05:06:05.163Z,19.95
2023-11-12T05:08:32.187Z,17.92
2023-11-12T05:10:58.993Z,20.70
2023-11-12T05:13:26.753Z,20.65
2023-11-12T05:15:53.924Z,20.63
2023-11-12T05:18:20.752Z,18.17
2023-11-12T05:20:48.660Z,19.50
2023-11-12T05:23:15.591Z,19.05
2023-11-12T05:25:42.452Z,18.45
2023-11-12T05:28:09.292Z,17.88
2023-11-12T05:30:36.287Z,16.00
2023-11-12T05:33:03.638Z,15.73
2023-11-12T05:35:30.553Z,16.48
2023-11-12T05:37:57.527Z,21.17
2023-11-12T05:40:24.458Z,17.70
2023-11-12T05:42:51.334Z,17.83
2023-11-12T05:45:19.316Z,16.92
2023-11-12T05:47:46.407Z,19.77
2023-11-12T05:50:13.996Z,18.65
2023-11-12T05:52:40.879Z,19.77
2023-11-12T05:55:07.845Z,18.20
2023-11-12T05:57:34.704Z,17.20
2023-11-12T06:00:01.585Z,22.23
2023-11-12T06:02:28.349Z,16.92
2023-11-12T06:04:55.190Z,20.25
2023-11-12T06:07:21.960Z,17.60
2023-11-12T06:09:48.780Z,15.23
2023-11-12T06:12:15.617Z,16.15
2023-11-12T06:14:43.452Z,16.13
2023-11-12T06:17:11.165Z,18.75
2023-11-12T06:19:37.957Z,17.08
2023-11-12T06:22:04.901Z,17.65
2023-11-12T06:24:31.769Z,17.85
2023-11-12T06:26:58.635Z,16.48
2023-11-12T06:29:25.370Z,17.80
2023-11-12T06:31:52.409Z,15.85
2023-11-12T06:34:20.102Z,16.67
2023-11-12T06:36:47.100Z,17.80
2023-11-12T06:39:14.690Z,16.50
2023-11-12T06:41:42.725Z,17.55
2023-11-12T06:44:13.282Z,16.88
2023-11-12T06:46:47.047Z,17.20
2023-11-12T06:49:14.377Z,16.58
2023-11-12T06:51:41.228Z,16.45
2023-11-12T06:54:09.570Z,16.48
2023-11-12T06:56:36.513Z,20.30
2023-11-12T06:59:03.872Z,16.55
2023-11-12T07:01:31.092Z,17.35
2023-11-12T07:03:58.188Z,17.25
2023-11-12T07:06:25.023Z,18.27
2023-11-12T07:08:51.828Z,16.77
2023-11-12T07:11:18.664Z,17.10
2023-11-12T07:13:45.415Z,17.55
2023-11-12T07:16:21.594Z,18.17
2023-11-12T07:18:54.042Z,18.30
2023-11-12T07:21:32.376Z,17.58
2023-11-12T07:24:00.340Z,20.60
2023-11-12T07:26:28.228Z,18.15
2023-11-12T07:28:55.521Z,16.77
2023-11-12T07:31:25.350Z,18.15
2023-11-12T07:33:52.873Z,18.65
2023-11-12T07:36:21.977Z,18.98
2023-11-12T07:38:48.932Z,17.88
2023-11-12T07:41:15.712Z,24.23
2023-11-12T07:43:42.716Z,21.50
2023-11-12T07:46:09.704Z,18.02
2023-11-12T07:48:36.989Z,18.30
2023-11-12T07:51:04.019Z,18.42
2023-11-12T07:53:30.887Z,19.20
2023-11-12T07:55:57.737Z,22.27
2023-11-12T07:58:24.582Z,22.23
2023-11-12T08:00:51.421Z,22.98
2023-11-12T08:03:18.246Z,27.35
2023-11-12T08:05:46.986Z,25.95
2023-11-12T08:08:13.777Z,25.75
2023-11-12T08:10:40.656Z,26.85
2023-11-12T08:13:07.492Z,25.92
2023-11-12T08:15:34.545Z,25.02
2023-11-12T08:18:01.386Z,23.23
2023-11-12T08:20:28.185Z,29.30
2023-11-12T08:22:54.961Z,30.05
2023-11-12T08:25:21.751Z,24.65
2023-11-12T08:27:48.536Z,24.88
2023-11-12T08:30:15.470Z,27.70
2023-11-12T08:32:42.531Z,21.33
2023-11-12T08:35:09.336Z,23.15
2023-11-12T08:37:36.987Z,29.40
2023-11-12T08:40:04.254Z,25.15
2023-11-12T08:42:31.157Z,22.23
2023-11-12T08:44:58.215Z,29.25
2023-11-12T08:47:25.240Z,24.13
2023-11-12T08:49:52.338Z,24.48
2023-11-12T08:52:19.252Z,23.50
2023-11-12T08:54:49.073Z,26.50
2023-11-12T08:57:15.909Z,22.30
2023-11-12T08:59:42.697Z,25.45
2023-11-12T09:02:09.530Z,27.27
2023-11-12T09:04:36.406Z,23.50
2023-11-12T09:07:03.930Z,26.98
2023-11-12T09:09:30.924Z,29.20
2023-11-12T09:11:57.697Z,26.33
2023-11-12T09:14:24.553Z,24.02
2023-11-12T09:16:51.362Z,25.65
2023-11-12T09:19:18.317Z,23.42
2023-11-12T09:21:45.130Z,25.33
2023-11-12T09:24:12.079Z,26.05
2023-11-12T09:26:38.885Z,23.30
2023-11-12T09:29:06.083Z,20.27
2023-11-12T09:31:33.044Z,20.13
2023-11-12T09:33:59.896Z,19.83
2023-11-12T09:36:26.679Z,20.27
2023-11-12T09:38:53.483Z,22.80
2023-11-12T09:41:23.722Z,19.13
2023-11-12T09:43:54.929Z,19.48
2023-11-12T09:46:23.981Z,18.60
2023-11-12T09:48:53.577Z,22.48
2023-11-12T09:51:21.959Z,17.65
2023-11-12T09:53:51.875Z,22.52
2023-11-12T09:56:23.738Z,19.65
2023-11-12T09:58:50.728Z,18.52
2023-11-12T10:01:17.618Z,19.20
2023-11-12T10:03:50.016Z,17.98
2023-11-12T10:06:20.213Z,20.23
2023-11-12T10:08:47.044Z,19.58
2023-11-12T10:11:14.879Z,19.08
2023-11-12T10:13:41.879Z,18.17
2023-11-12T10:16:27.674Z,18.67
2023-11-12T10:18:55.241Z,19.52
2023-11-12T10:21:22.266Z,19.60
2023-11-12T10:24:06.779Z,17.33
2023-11-12T10:26:36.989Z,21.27
2023-11-12T10:29:03.854Z,19.85
2023-11-12T10:31:38.650Z,19.58
2023-11-12T10:34:05.695Z,21.15
2023-11-12T10:36:32.573Z,16.65
2023-11-12T10:39:06.395Z,26.10
2023-11-12T10:41:36.453Z,27.20
2023-11-12T10:44:04.460Z,27.55
2023-11-12T10:46:36.093Z,32.58
2023-11-12T10:51:31.814Z,32.88
2023-11-12T10:54:00.846Z,35.10
2023-11-12T10:56:28.841Z,34.88
2023-11-12T10:58:56.921Z,37.45
2023-11-12T11:01:24.959Z,35.40
2023-11-12T11:03:52.613Z,36.60
2023-11-12T11:06:19.996Z,35.08
2023-11-12T11:08:46.915Z,36.58
2023-11-12T11:11:14.265Z,35.90
2023-11-12T11:13:41.285Z,38.45
2023-11-12T11:16:09.207Z,34.30
2023-11-12T11:18:36.177Z,34.90
2023-11-12T11:21:16.467Z,37.83
2023-11-12T11:23:53.126Z,37.20
2023-11-12T11:26:29.116Z,35.65
2023-11-12T11:29:11.570Z,34.55
2023-11-12T11:31:48.831Z,35.17
2023-11-12T11:34:17.313Z,35.55
2023-11-12T11:37:00.648Z,32.67
2023-11-12T11:39:29.721Z,33.47
2023-11-12T11:41:56.657Z,34.10
2023-11-12T11:44:35.440Z,35.58
2023-11-12T11:47:27.485Z,40.03
2023-11-12T11:49:57.992Z,39.25
2023-11-12T11:52:26.068Z,40.60
2023-11-12T11:54:58.957Z,40.38
2023-11-12T11:57:27.822Z,39.33
2023-11-12T11:59:55.897Z,43.10
2023-11-12T12:02:24.739Z,43.75
2023-11-12T12:04:59.185Z,42.60
2023-11-12T12:07:28.768Z,42.17
2023-11-12T12:09:59.831Z,49.13
2023-11-12T12:12:27.772Z,49.45
2023-11-12T12:14:55.927Z,54.25
2023-11-12T12:17:23.643Z,48.70
2023-11-12T12:19:55.130Z,56.28
2023-11-12T12:22:25.949Z,54.67
2023-11-12T12:24:56.850Z,68.05
2023-11-12T12:27:25.469Z,60.38
2023-11-12T12:29:53.020Z,53.47
2023-11-12T12:32:21.287Z,59.28
2023-11-12T12:34:57.372Z,58.85
2023-11-12T12:37:26.966Z,57.58
2023-11-12T12:40:02.791Z,58.22
2023-11-12T12:42:30.498Z,60.55
2023-11-12T12:45:00.705Z,205.23
2023-11-12T12:47:42.916Z,73.95
2023-11-12T12:50:34.541Z,60.40
2023-11-12T12:53:22.279Z,66.00
2023-11-12T12:55:50.130Z,64.57
2023-11-12T12:58:16.957Z,64.43
2023-11-12T13:00:44.848Z,61.00
2023-11-12T13:03:31.926Z,66.82
2023-11-12T13:05:59.347Z,63.92
2023-11-12T13:08:26.387Z,64.00
2023-11-12T13:10:55.459Z,64.30
2023-11-12T13:13:22.974Z,58.42
2023-11-12T13:15:49.986Z,61.30
2023-11-12T13:18:18.971Z,59.72
2023-11-12T13:20:46.242Z,55.85
2023-11-12T13:23:13.153Z,59.35
2023-11-12T13:25:42.543Z,56.08
2023-11-12T13:28:11.086Z,56.90
2023-11-12T13:30:37.938Z,58.95
2023-11-12T13:33:05.344Z,58.72
2023-11-12T13:35:32.374Z,67.55
2023-11-12T13:37:59.210Z,70.82
2023-11-12T13:40:26.616Z,59.75
2023-11-12T13:42:53.471Z,66.97
2023-11-12T13:45:20.543Z,59.45
2023-11-12T13:47:47.418Z,61.38
2023-11-12T13:50:15.415Z,86.82
2023-11-12T13:52:44.165Z,74.60
2023-11-12T13:55:19.172Z,62.75
2023-11-12T13:57:47.261Z,69.57
2023-11-12T14:00:16.950Z,69.07
2023-11-12T14:02:44.485Z,64.22
2023-11-12T14:05:12.103Z,69.43
2023-11-12T14:07:42.582Z,59.88
2023-11-12T14:10:11.316Z,63.40
2023-11-12T14:12:39.346Z,62.22
2023-11-12T14:15:10.490Z,59.40
2023-11-12T14:17:37.583Z,60.83
2023-11-12T14:20:07.644Z,61.95
2023-11-12T14:22:35.734Z,63.03
2023-11-12T14:25:04.549Z,59.38
2023-11-12T14:27:31.889Z,60.03
2023-11-12T14:29:58.748Z,65.75
2023-11-12T14:32:25.640Z,57.08
2023-11-12T14:34:52.552Z,55.67
2023-11-12T14:37:19.461Z,55.92
2023-11-12T14:39:46.226Z,52.67
2023-11-12T14:42:13.017Z,57.95
2023-11-12T14:44:39.887Z,58.05
2023-11-12T14:47:07.544Z,65.70
2023-11-12T14:49:34.507Z,54.28
2023-11-12T14:52:01.421Z,55.08
2023-11-12T14:54:30.545Z,52.97
2023-11-12T14:56:57.515Z,56.97
2023-11-12T14:59:24.382Z,57.28
2023-11-12T15:01:52.068Z,86.35
2023-11-12T15:04:19.330Z,57.83
2023-11-12T15:06:46.249Z,56.53
2023-11-12T15:09:13.079Z,61.40
2023-11-12T15:11:41.811Z,55.45
2023-11-12T15:14:08.837Z,60.05
2023-11-12T15:16:35.898Z,62.60
2023-11-12T15:19:02.976Z,61.70
2023-11-12T15:21:29.931Z,59.42
2023-11-12T15:23:56.913Z,66.25
2023-11-12T15:26:23.918Z,60.65
2023-11-12T15:28:52.164Z,61.97
2023-11-12T15:31:19.479Z,61.42
2023-11-12T15:33:46.472Z,67.53
2023-11-12T15:36:13.627Z,73.10
2023-11-12T15:38:40.416Z,65.88
2023-11-12T15:41:07.562Z,67.90
2023-11-12T15:43:34.680Z,76.78
2023-11-12T15:46:04.528Z,69.18
2023-11-12T15:48:32.273Z,69.30
2023-11-12T15:50:59.135Z,72.63
2023-11-12T15:53:31.767Z,69.97
2023-11-12T15:56:00.664Z,69.20
2023-11-12T15:58:28.496Z,74.88
2023-11-12T16:00:55.563Z,76.13
2023-11-12T16:03:22.525Z,78.60
2023-11-12T16:05:49.587Z,83.43
2023-11-12T16:08:16.501Z,79.18
2023-11-12T16:10:43.246Z,84.60
2023-11-12T16:13:10.118Z,78.95
2023-11-12T16:15:37.454Z,82.05
2023-11-12T16:18:04.494Z,83.75
2023-11-12T16:20:33.134Z,84.13
2023-11-12T16:23:00.531Z,79.78
2023-11-12T16:25:28.145Z,95.10
2023-11-12T16:27:55.505Z,82.80
2023-11-12T16:30:25.195Z,93.32
2023-11-12T16:32:52.341Z,85.15
2023-11-12T16:35:21.070Z,83.72
2023-11-12T16:37:49.973Z,77.70
2023-11-12T16:40:19.393Z,88.32
2023-11-12T16:42:49.336Z,84.93
2023-11-12T16:45:17.930Z,84.15
2023-11-12T16:47:45.119Z,78.90
2023-11-12T16:50:15.564Z,75.95
2023-11-12T16:52:43.069Z,74.80
2023-11-12T16:55:11.151Z,68.47
2023-11-12T16:57:38.673Z,70.00
2023-11-12T17:00:07.088Z,76.13
2023-11-12T17:02:36.584Z,70.85
2023-11-12T17:05:04.747Z,75.93
2023-11-12T17:07:31.883Z,77.18
2023-11-12T17:09:58.848Z,72.20
2023-11-12T17:12:26.011Z,75.43
2023-11-12T17:14:55.069Z,70.03
2023-11-12T17:17:24.121Z,68.03
2023-11-12T17:19:50.927Z,72.95
2023-11-12T17:22:18.322Z,75.10
2023-11-12T17:24:45.205Z,74.63
2023-11-12T17:27:14.530Z,75.57
2023-11-12T17:29:41.598Z,76.20
2023-11-12T17:32:08.359Z,74.03
2023-11-12T17:34:35.081Z,68.70
2023-11-12T17:37:02.706Z,68.10
2023-11-12T17:39:29.487Z,68.70
2023-11-12T17:41:58.581Z,76.95
2023-11-12T17:44:25.972Z,73.72
2023-11-12T17:46:52.880Z,72.68
2023-11-12T17:49:21.174Z,71.70
2023-11-12T17:51:48.033Z,68.55
2023-11-12T17:54:16.946Z,71.25
2023-11-12T17:56:43.825Z,69.10
2023-11-12T17:59:10.677Z,68.60
2023-11-12T18:01:37.668Z,67.00
2023-11-12T18:04:05.334Z,69.22
2023-11-12T18:06:34.110Z,68.72
2023-11-12T18:09:01.808Z,69.25
2023-11-12T18:11:32.022Z,67.57
2023-11-12T18:14:00.883Z,65.15
2023-11-12T18:16:28.007Z,68.85
2023-11-12T18:18:56.767Z,65.43
2023-11-12T18:21:23.840Z,69.13
2023-11-12T18:23:50.731Z,60.00
2023-11-12T18:26:18.760Z,60.90
2023-11-12T18:28:45.737Z,63.05
2023-11-12T18:31:17.980Z,63.72
2023-11-12T18:33:44.854Z,57.35
2023-11-12T18:36:11.623Z,58.72
2023-11-12T18:38:38.671Z,66.35
2023-11-12T18:41:06.512Z,62.40
2023-11-12T18:43:33.514Z,60.42
2023-11-12T18:46:04.648Z,60.70
2023-11-12T18:48:31.622Z,60.53
2023-11-12T18:50:58.531Z,63.05
2023-11-12T18:53:25.636Z,60.88
2023-11-12T18:55:52.435Z,59.75
2023-11-12T18:58:19.876Z,61.47
2023-11-12T19:00:46.856Z,60.33
2023-11-12T19:03:13.901Z,58.90
2023-11-12T19:05:40.747Z,61.47
2023-11-12T19:08:10.479Z,53.42
2023-11-12T19:10:38.414Z,56.50
2023-11-12T19:13:05.356Z,53.83
2023-11-12T19:15:32.346Z,58.33
2023-11-12T19:17:59.230Z,61.80
2023-11-12T19:20:26.334Z,59.83
2023-11-12T19:22:54.637Z,55.25
2023-11-12T19:25:21.521Z,60.88
2023-11-12T19:27:48.445Z,58.58
2023-11-12T19:30:16.761Z,56.13
2023-11-12T19:32:45.388Z,55.17
2023-11-12T19:35:14.069Z,58.75
2023-11-12T19:37:41.184Z,54.80
2023-11-12T19:40:09.513Z,64.28
2023-11-12T19:42:36.834Z,57.17
2023-11-12T19:45:06.758Z,55.08
2023-11-12T19:47:34.209Z,54.40
2023-11-12T19:50:01.301Z,51.78
2023-11-12T19:52:29.596Z,57.47
2023-11-12T19:55:16.200Z,50.88
2023-11-12T19:57:43.151Z,55.55
2023-11-12T20:00:11.469Z,58.83
2023-11-12T20:02:41.822Z,60.70
2023-11-12T20:05:09.052Z,58.22
2023-11-12T20:07:36.000Z,59.65
2023-11-12T20:10:03.521Z,55.72
2023-11-12T20:12:30.774Z,56.38
2023-11-12T20:14:57.569Z,54.03
2023-11-12T20:17:24.358Z,57.13
2023-11-12T20:19:51.174Z,57.70
2023-11-12T20:22:18.840Z,51.25
2023-11-12T20:24:46.690Z,53.50
2023-11-12T20:27:16.441Z,55.45
2023-11-12T20:29:44.256Z,55.50
2023-11-12T20:32:16.244Z,51.38
2023-11-12T20:34:45.587Z,52.28
2023-11-12T20:37:16.871Z,54.92
2023-11-12T20:39:44.247Z,51.30
2023-11-12T20:42:11.037Z,49.75
2023-11-12T20:44:41.797Z,48.95
2023-11-12T20:47:12.314Z,107.47
2023-11-12T20:49:40.153Z,86.50
2023-11-12T20:52:09.267Z,65.28
2023-11-12T20:54:38.452Z,57.85
2023-11-12T20:57:07.518Z,43.35
2023-11-12T20:59:34.603Z,67.35
2023-11-12T21:02:10.113Z,46.80
2023-11-12T21:04:45.519Z,45.22
2023-11-12T21:07:13.936Z,41.53
2023-11-12T21:09:41.076Z,42.47
2023-11-12T21:12:09.197Z,41.33
2023-11-12T21:14:36.120Z,39.97
2023-11-12T21:17:02.984Z,54.22
2023-11-12T21:19:29.840Z,38.10
2023-11-12T21:21:57.334Z,38.38
2023-11-12T21:24:24.242Z,42.42
2023-11-12T21:26:51.491Z,40.85
2023-11-12T21:29:20.478Z,39.88
2023-11-12T21:31:48.394Z,40.33
2023-11-12T21:34:15.540Z,40.92
2023-11-12T21:36:42.400Z,42.70
2023-11-12T21:39:11.914Z,42.90
2023-11-12T21:41:39.463Z,43.63
2023-11-12T21:44:08.744Z,41.95
2023-11-12T21:46:35.871Z,41.15
2023-11-12T21:49:02.791Z,45.25
2023-11-12T21:51:31.771Z,60.15
2023-11-12T21:53:58.582Z,48.05
2023-11-12T21:56:25.345Z,48.55
2023-11-12T21:58:52.136Z,40.88
2023-11-12T22:01:19.992Z,40.13
2023-11-12T22:03:47.040Z,38.65
2023-11-12T22:06:14.032Z,36.28
2023-11-12T22:08:40.840Z,42.08
2023-11-12T22:11:07.561Z,43.08
2023-11-12T22:13:34.303Z,40.20
2023-11-12T22:16:01.510Z,39.97
2023-11-12T22:18:29.320Z,58.58
2023-11-12T22:20:57.190Z,47.15
2023-11-12T22:23:24.014Z,49.05
2023-11-12T22:25:51.037Z,57.28
2023-11-12T22:28:18.064Z,53.80
2023-11-12T22:30:46.563Z,53.60
2023-11-12T22:33:13.496Z,51.75
2023-11-12T22:35:40.364Z,49.75
2023-11-12T22:38:08.146Z,54.90
2023-11-12T22:40:35.140Z,55.33
2023-11-12T22:43:03.014Z,50.97
2023-11-12T22:45:29.829Z,52.53
2023-11-12T22:47:57.444Z,128.48
2023-11-12T22:50:25.984Z,96.70
2023-11-12T22:52:53.494Z,82.70
2023-11-12T22:55:20.404Z,47.75
2023-11-12T22:57:47.340Z,50.88
2023-11-12T23:00:40.623Z,51.53
2023-11-12T23:03:11.444Z,59.63
2023-11-12T23:05:38.318Z,99.47
2023-11-12T23:08:07.488Z,130.85
2023-11-12T23:10:38.635Z,117.55
2023-11-12T23:13:06.450Z,141.35
2023-11-12T23:15:34.701Z,73.88
2023-11-12T23:18:01.575Z,43.45
2023-11-12T23:20:28.505Z,40.78
2023-11-12T23:22:55.247Z,43.60
2023-11-12T23:25:22.048Z,46.13
2023-11-12T23:27:48.953Z,42.58
2023-11-12T23:30:15.882Z,40.60
2023-11-12T23:32:46.022Z,42.25
2023-11-12T23:35:13.112Z,43.35
2023-11-12T23:37:39.989Z,39.58
2023-11-12T23:40:08.307Z,41.60
2023-11-12T23:42:35.296Z,39.78
2023-11-12T23:45:02.109Z,38.35
2023-11-12T23:47:29.683Z,43.97
2023-11-12T23:49:56.540Z,36.83
2023-11-12T23:52:23.367Z,33.60
2023-11-12T23:54:50.214Z,36.67
2023-11-12T23:57:17.028Z,36.67
2023-11-12T23:59:44.129Z,38.80
